sensor_id;sensor_type;location;lat;lon;timestamp;P1;durP1;ratioP1;P2;durP2;ratioP2
21492;SDS011;10908;50.690;4.400;2022-07-19T00:01:59;7.38;;;2.25;;
21492;SDS011;10908;50.690;4.400;2022-07-19T00:04:25;8.25;;;2.13;;
21492;SDS011;10908;50.690;4.400;2022-07-19T00:06:51;6.10;;;2.17;;
21492;SDS011;10908;50.690;4.400;2022-07-19T00:09:16;9.07;;;2.20;;
21492;SDS011;10908;50.690;4.400;2022-07-19T00:11:42;5.05;;;2.03;;
21492;SDS011;10908;50.690;4.400;2022-07-19T00:14:07;4.82;;;2.20;;
21492;SDS011;10908;50.690;4.400;2022-07-19T00:16:33;6.68;;;2.20;;
21492;SDS011;10908;50.690;4.400;2022-07-19T00:18:59;6.03;;;2.17;;
21492;SDS011;10908;50.690;4.400;2022-07-19T00:21:24;7.28;;;2.17;;
21492;SDS011;10908;50.690;4.400;2022-07-19T00:23:50;5.18;;;2.13;;
21492;SDS011;10908;50.690;4.400;2022-07-19T00:26:16;5.75;;;2.00;;
21492;SDS011;10908;50.690;4.400;2022-07-19T00:28:41;5.95;;;1.98;;
21492;SDS011;10908;50.690;4.400;2022-07-19T00:31:07;5.07;;;2.05;;
21492;SDS011;10908;50.690;4.400;2022-07-19T00:33:32;7.75;;;2.10;;
21492;SDS011;10908;50.690;4.400;2022-07-19T00:35:58;9.63;;;1.90;;
21492;SDS011;10908;50.690;4.400;2022-07-19T00:38:24;5.45;;;1.80;;
21492;SDS011;10908;50.690;4.400;2022-07-19T00:40:50;9.95;;;1.88;;
21492;SDS011;10908;50.690;4.400;2022-07-19T00:43:15;7.63;;;2.15;;
21492;SDS011;10908;50.690;4.400;2022-07-19T00:45:41;4.97;;;1.80;;
21492;SDS011;10908;50.690;4.400;2022-07-19T00:48:07;6.93;;;2.00;;
21492;SDS011;10908;50.690;4.400;2022-07-19T00:50:33;4.57;;;2.00;;
21492;SDS011;10908;50.690;4.400;2022-07-19T00:53:00;6.03;;;2.00;;
21492;SDS011;10908;50.690;4.400;2022-07-19T00:55:28;7.22;;;2.10;;
21492;SDS011;10908;50.690;4.400;2022-07-19T00:57:55;6.95;;;2.20;;
21492;SDS011;10908;50.690;4.400;2022-07-19T01:00:22;6.32;;;1.95;;
21492;SDS011;10908;50.690;4.400;2022-07-19T01:02:48;8.13;;;2.20;;
21492;SDS011;10908;50.690;4.400;2022-07-19T01:05:15;7.38;;;2.17;;
21492;SDS011;10908;50.690;4.400;2022-07-19T01:07:40;4.35;;;2.10;;
21492;SDS011;10908;50.690;4.400;2022-07-19T01:10:07;6.78;;;2.65;;
21492;SDS011;10908;50.690;4.400;2022-07-19T01:12:34;4.63;;;2.00;;
21492;SDS011;10908;50.690;4.400;2022-07-19T01:15:01;8.52;;;2.20;;
21492;SDS011;10908;50.690;4.400;2022-07-19T01:17:36;9.82;;;2.28;;
21492;SDS011;10908;50.690;4.400;2022-07-19T01:20:02;6.47;;;2.30;;
21492;SDS011;10908;50.690;4.400;2022-07-19T01:22:28;5.38;;;2.13;;
21492;SDS011;10908;50.690;4.400;2022-07-19T01:24:53;7.68;;;2.05;;
21492;SDS011;10908;50.690;4.400;2022-07-19T01:27:19;6.43;;;2.22;;
21492;SDS011;10908;50.690;4.400;2022-07-19T01:29:44;6.30;;;2.20;;
21492;SDS011;10908;50.690;4.400;2022-07-19T01:32:10;5.25;;;2.42;;
21492;SDS011;10908;50.690;4.400;2022-07-19T01:34:36;7.90;;;2.40;;
21492;SDS011;10908;50.690;4.400;2022-07-19T01:37:01;6.43;;;2.10;;
21492;SDS011;10908;50.690;4.400;2022-07-19T01:39:27;5.55;;;2.40;;
21492;SDS011;10908;50.690;4.400;2022-07-19T01:41:53;4.80;;;2.05;;
21492;SDS011;10908;50.690;4.400;2022-07-19T01:44:18;5.50;;;2.28;;
21492;SDS011;10908;50.690;4.400;2022-07-19T01:46:44;9.60;;;2.60;;
21492;SDS011;10908;50.690;4.400;2022-07-19T01:49:09;6.60;;;2.10;;
21492;SDS011;10908;50.690;4.400;2022-07-19T01:51:35;7.25;;;2.20;;
21492;SDS011;10908;50.690;4.400;2022-07-19T01:54:01;5.97;;;2.30;;
21492;SDS011;10908;50.690;4.400;2022-07-19T01:56:26;6.95;;;2.45;;
21492;SDS011;10908;50.690;4.400;2022-07-19T01:58:52;8.77;;;2.85;;
21492;SDS011;10908;50.690;4.400;2022-07-19T02:01:18;5.70;;;2.38;;
21492;SDS011;10908;50.690;4.400;2022-07-19T02:03:43;7.00;;;2.13;;
21492;SDS011;10908;50.690;4.400;2022-07-19T02:06:09;5.18;;;2.35;;
21492;SDS011;10908;50.690;4.400;2022-07-19T02:08:35;6.75;;;2.40;;
21492;SDS011;10908;50.690;4.400;2022-07-19T02:11:00;8.27;;;2.22;;
21492;SDS011;10908;50.690;4.400;2022-07-19T02:13:46;6.03;;;2.33;;
21492;SDS011;10908;50.690;4.400;2022-07-19T02:16:12;7.05;;;2.60;;
21492;SDS011;10908;50.690;4.400;2022-07-19T02:18:38;5.88;;;2.55;;
21492;SDS011;10908;50.690;4.400;2022-07-19T02:21:03;8.35;;;2.70;;
21492;SDS011;10908;50.690;4.400;2022-07-19T02:23:29;7.32;;;2.58;;
21492;SDS011;10908;50.690;4.400;2022-07-19T02:25:55;8.32;;;2.30;;
21492;SDS011;10908;50.690;4.400;2022-07-19T02:28:20;5.30;;;2.30;;
21492;SDS011;10908;50.690;4.400;2022-07-19T02:30:46;8.55;;;2.38;;
21492;SDS011;10908;50.690;4.400;2022-07-19T02:33:12;6.57;;;2.60;;
21492;SDS011;10908;50.690;4.400;2022-07-19T02:35:37;6.95;;;2.50;;
21492;SDS011;10908;50.690;4.400;2022-07-19T02:38:03;9.90;;;2.58;;
21492;SDS011;10908;50.690;4.400;2022-07-19T02:40:29;4.82;;;2.22;;
21492;SDS011;10908;50.690;4.400;2022-07-19T02:42:55;8.50;;;2.53;;
21492;SDS011;10908;50.690;4.400;2022-07-19T02:45:21;7.13;;;2.55;;
21492;SDS011;10908;50.690;4.400;2022-07-19T02:47:47;13.38;;;3.20;;
21492;SDS011;10908;50.690;4.400;2022-07-19T02:50:12;7.05;;;2.50;;
21492;SDS011;10908;50.690;4.400;2022-07-19T02:52:38;10.13;;;2.70;;
21492;SDS011;10908;50.690;4.400;2022-07-19T02:55:04;10.23;;;2.70;;
21492;SDS011;10908;50.690;4.400;2022-07-19T02:57:30;6.53;;;2.38;;
21492;SDS011;10908;50.690;4.400;2022-07-19T02:59:56;6.70;;;2.70;;
21492;SDS011;10908;50.690;4.400;2022-07-19T03:02:22;10.80;;;2.88;;
21492;SDS011;10908;50.690;4.400;2022-07-19T03:04:48;8.20;;;2.65;;
21492;SDS011;10908;50.690;4.400;2022-07-19T03:07:14;3.90;;;2.20;;
21492;SDS011;10908;50.690;4.400;2022-07-19T03:09:39;7.53;;;2.78;;
21492;SDS011;10908;50.690;4.400;2022-07-19T03:12:05;6.53;;;2.42;;
21492;SDS011;10908;50.690;4.400;2022-07-19T03:14:31;8.43;;;3.03;;
21492;SDS011;10908;50.690;4.400;2022-07-19T03:16:57;5.95;;;2.40;;
21492;SDS011;10908;50.690;4.400;2022-07-19T03:19:22;8.45;;;2.55;;
21492;SDS011;10908;50.690;4.400;2022-07-19T03:21:51;6.82;;;2.78;;
21492;SDS011;10908;50.690;4.400;2022-07-19T03:24:17;10.95;;;2.50;;
21492;SDS011;10908;50.690;4.400;2022-07-19T03:26:43;10.63;;;2.70;;
21492;SDS011;10908;50.690;4.400;2022-07-19T03:29:09;6.30;;;2.58;;
21492;SDS011;10908;50.690;4.400;2022-07-19T03:31:34;6.97;;;2.40;;
21492;SDS011;10908;50.690;4.400;2022-07-19T03:34:00;10.05;;;2.85;;
21492;SDS011;10908;50.690;4.400;2022-07-19T03:36:26;8.15;;;2.65;;
21492;SDS011;10908;50.690;4.400;2022-07-19T03:38:51;7.90;;;2.63;;
21492;SDS011;10908;50.690;4.400;2022-07-19T03:41:17;9.43;;;2.47;;
21492;SDS011;10908;50.690;4.400;2022-07-19T03:43:43;6.15;;;2.20;;
21492;SDS011;10908;50.690;4.400;2022-07-19T03:46:08;7.78;;;2.38;;
21492;SDS011;10908;50.690;4.400;2022-07-19T03:48:34;6.90;;;2.80;;
21492;SDS011;10908;50.690;4.400;2022-07-19T03:51:00;8.57;;;2.47;;
21492;SDS011;10908;50.690;4.400;2022-07-19T03:53:25;5.00;;;2.40;;
21492;SDS011;10908;50.690;4.400;2022-07-19T03:55:51;5.68;;;2.30;;
21492;SDS011;10908;50.690;4.400;2022-07-19T03:58:17;7.38;;;2.50;;
21492;SDS011;10908;50.690;4.400;2022-07-19T04:00:42;5.72;;;2.42;;
21492;SDS011;10908;50.690;4.400;2022-07-19T04:03:10;7.85;;;2.38;;
21492;SDS011;10908;50.690;4.400;2022-07-19T04:05:36;8.15;;;2.20;;
21492;SDS011;10908;50.690;4.400;2022-07-19T04:08:02;7.88;;;2.40;;
21492;SDS011;10908;50.690;4.400;2022-07-19T04:10:28;9.07;;;2.20;;
21492;SDS011;10908;50.690;4.400;2022-07-19T04:12:54;7.65;;;2.22;;
21492;SDS011;10908;50.690;4.400;2022-07-19T04:15:19;6.93;;;2.33;;
21492;SDS011;10908;50.690;4.400;2022-07-19T04:17:45;6.25;;;2.10;;
21492;SDS011;10908;50.690;4.400;2022-07-19T04:20:11;8.27;;;2.40;;
21492;SDS011;10908;50.690;4.400;2022-07-19T04:22:37;11.60;;;2.28;;
21492;SDS011;10908;50.690;4.400;2022-07-19T04:25:03;8.27;;;2.15;;
21492;SDS011;10908;50.690;4.400;2022-07-19T04:27:29;6.28;;;2.20;;
21492;SDS011;10908;50.690;4.400;2022-07-19T04:29:55;4.72;;;2.08;;
21492;SDS011;10908;50.690;4.400;2022-07-19T04:32:22;7.10;;;2.20;;
21492;SDS011;10908;50.690;4.400;2022-07-19T04:34:48;9.32;;;2.17;;
21492;SDS011;10908;50.690;4.400;2022-07-19T04:37:14;5.97;;;2.20;;
21492;SDS011;10908;50.690;4.400;2022-07-19T04:39:40;7.15;;;2.13;;
21492;SDS011;10908;50.690;4.400;2022-07-19T04:42:05;7.55;;;2.40;;
21492;SDS011;10908;50.690;4.400;2022-07-19T04:44:32;9.05;;;2.35;;
21492;SDS011;10908;50.690;4.400;2022-07-19T04:46:57;9.48;;;2.22;;
21492;SDS011;10908;50.690;4.400;2022-07-19T04:49:23;10.57;;;2.20;;
21492;SDS011;10908;50.690;4.400;2022-07-19T04:51:49;5.85;;;2.00;;
21492;SDS011;10908;50.690;4.400;2022-07-19T04:54:14;6.45;;;2.10;;
21492;SDS011;10908;50.690;4.400;2022-07-19T04:56:40;7.47;;;2.10;;
21492;SDS011;10908;50.690;4.400;2022-07-19T04:59:07;7.13;;;1.90;;
21492;SDS011;10908;50.690;4.400;2022-07-19T05:01:32;9.27;;;2.15;;
21492;SDS011;10908;50.690;4.400;2022-07-19T05:03:59;6.40;;;2.03;;
21492;SDS011;10908;50.690;4.400;2022-07-19T05:06:25;6.85;;;1.98;;
21492;SDS011;10908;50.690;4.400;2022-07-19T05:08:51;8.05;;;2.15;;
21492;SDS011;10908;50.690;4.400;2022-07-19T05:11:21;5.50;;;1.90;;
21492;SDS011;10908;50.690;4.400;2022-07-19T05:13:47;5.85;;;1.90;;
21492;SDS011;10908;50.690;4.400;2022-07-19T05:16:13;5.07;;;1.83;;
21492;SDS011;10908;50.690;4.400;2022-07-19T05:18:39;6.72;;;1.95;;
21492;SDS011;10908;50.690;4.400;2022-07-19T05:21:05;5.80;;;1.88;;
21492;SDS011;10908;50.690;4.400;2022-07-19T05:23:30;8.65;;;1.77;;
21492;SDS011;10908;50.690;4.400;2022-07-19T05:25:57;5.07;;;1.90;;
21492;SDS011;10908;50.690;4.400;2022-07-19T05:28:23;5.13;;;1.73;;
21492;SDS011;10908;50.690;4.400;2022-07-19T05:30:48;9.65;;;2.10;;
21492;SDS011;10908;50.690;4.400;2022-07-19T05:33:14;6.43;;;1.80;;
21492;SDS011;10908;50.690;4.400;2022-07-19T05:35:41;7.30;;;1.80;;
21492;SDS011;10908;50.690;4.400;2022-07-19T05:38:07;5.70;;;1.60;;
21492;SDS011;10908;50.690;4.400;2022-07-19T05:40:32;5.22;;;1.83;;
21492;SDS011;10908;50.690;4.400;2022-07-19T05:42:58;7.07;;;1.80;;
21492;SDS011;10908;50.690;4.400;2022-07-19T05:45:25;7.95;;;1.90;;
21492;SDS011;10908;50.690;4.400;2022-07-19T05:47:51;7.43;;;1.92;;
21492;SDS011;10908;50.690;4.400;2022-07-19T05:50:17;8.82;;;1.90;;
21492;SDS011;10908;50.690;4.400;2022-07-19T05:52:42;6.88;;;1.90;;
21492;SDS011;10908;50.690;4.400;2022-07-19T05:55:08;4.32;;;1.67;;
21492;SDS011;10908;50.690;4.400;2022-07-19T05:57:34;6.05;;;1.90;;
21492;SDS011;10908;50.690;4.400;2022-07-19T05:59:59;8.50;;;1.90;;
21492;SDS011;10908;50.690;4.400;2022-07-19T06:02:25;6.30;;;1.77;;
21492;SDS011;10908;50.690;4.400;2022-07-19T06:04:51;7.70;;;1.80;;
21492;SDS011;10908;50.690;4.400;2022-07-19T06:07:16;6.32;;;1.90;;
21492;SDS011;10908;50.690;4.400;2022-07-19T06:09:42;6.95;;;1.70;;
21492;SDS011;10908;50.690;4.400;2022-07-19T06:12:08;5.75;;;1.90;;
21492;SDS011;10908;50.690;4.400;2022-07-19T06:14:33;8.50;;;1.83;;
21492;SDS011;10908;50.690;4.400;2022-07-19T06:16:59;7.63;;;2.00;;
21492;SDS011;10908;50.690;4.400;2022-07-19T06:19:25;5.05;;;1.70;;
21492;SDS011;10908;50.690;4.400;2022-07-19T06:21:51;6.32;;;2.05;;
21492;SDS011;10908;50.690;4.400;2022-07-19T06:24:18;5.28;;;1.70;;
21492;SDS011;10908;50.690;4.400;2022-07-19T06:26:44;11.35;;;1.80;;
21492;SDS011;10908;50.690;4.400;2022-07-19T06:29:10;5.57;;;1.65;;
21492;SDS011;10908;50.690;4.400;2022-07-19T06:31:35;7.47;;;2.10;;
21492;SDS011;10908;50.690;4.400;2022-07-19T06:34:01;6.60;;;2.00;;
21492;SDS011;10908;50.690;4.400;2022-07-19T06:36:27;11.40;;;1.98;;
21492;SDS011;10908;50.690;4.400;2022-07-19T06:38:52;7.18;;;1.83;;
21492;SDS011;10908;50.690;4.400;2022-07-19T06:41:18;6.07;;;1.90;;
21492;SDS011;10908;50.690;4.400;2022-07-19T06:43:44;6.00;;;1.80;;
21492;SDS011;10908;50.690;4.400;2022-07-19T06:46:10;5.60;;;1.73;;
21492;SDS011;10908;50.690;4.400;2022-07-19T06:48:36;9.00;;;2.35;;
21492;SDS011;10908;50.690;4.400;2022-07-19T06:51:02;8.48;;;2.20;;
21492;SDS011;10908;50.690;4.400;2022-07-19T06:53:30;6.30;;;1.52;;
21492;SDS011;10908;50.690;4.400;2022-07-19T06:55:55;7.38;;;2.15;;
21492;SDS011;10908;50.690;4.400;2022-07-19T06:58:21;8.15;;;1.80;;
21492;SDS011;10908;50.690;4.400;2022-07-19T07:00:47;6.75;;;1.98;;
21492;SDS011;10908;50.690;4.400;2022-07-19T07:03:14;8.90;;;1.80;;
21492;SDS011;10908;50.690;4.400;2022-07-19T07:05:40;5.03;;;1.77;;
21492;SDS011;10908;50.690;4.400;2022-07-19T07:08:06;11.60;;;1.95;;
21492;SDS011;10908;50.690;4.400;2022-07-19T07:10:31;7.07;;;2.10;;
21492;SDS011;10908;50.690;4.400;2022-07-19T07:12:57;5.45;;;1.90;;
21492;SDS011;10908;50.690;4.400;2022-07-19T07:15:23;7.57;;;1.75;;
21492;SDS011;10908;50.690;4.400;2022-07-19T07:17:49;9.05;;;2.00;;
21492;SDS011;10908;50.690;4.400;2022-07-19T07:20:14;9.10;;;2.05;;
21492;SDS011;10908;50.690;4.400;2022-07-19T07:22:40;8.82;;;2.00;;
21492;SDS011;10908;50.690;4.400;2022-07-19T07:25:06;6.07;;;1.98;;
21492;SDS011;10908;50.690;4.400;2022-07-19T07:27:32;8.65;;;2.15;;
21492;SDS011;10908;50.690;4.400;2022-07-19T07:29:58;11.05;;;2.00;;
21492;SDS011;10908;50.690;4.400;2022-07-19T07:32:24;8.43;;;1.95;;
21492;SDS011;10908;50.690;4.400;2022-07-19T07:34:51;11.27;;;1.88;;
21492;SDS011;10908;50.690;4.400;2022-07-19T07:37:17;12.02;;;2.00;;
21492;SDS011;10908;50.690;4.400;2022-07-19T07:39:43;10.48;;;1.92;;
21492;SDS011;10908;50.690;4.400;2022-07-19T07:42:09;5.70;;;1.75;;
21492;SDS011;10908;50.690;4.400;2022-07-19T07:44:34;7.40;;;2.10;;
21492;SDS011;10908;50.690;4.400;2022-07-19T07:47:00;5.72;;;1.80;;
21492;SDS011;10908;50.690;4.400;2022-07-19T07:49:26;4.20;;;1.80;;
21492;SDS011;10908;50.690;4.400;2022-07-19T07:51:51;9.65;;;1.90;;
21492;SDS011;10908;50.690;4.400;2022-07-19T07:54:17;8.05;;;2.08;;
21492;SDS011;10908;50.690;4.400;2022-07-19T07:56:43;6.82;;;2.40;;
21492;SDS011;10908;50.690;4.400;2022-07-19T07:59:09;7.45;;;2.00;;
21492;SDS011;10908;50.690;4.400;2022-07-19T08:01:34;7.72;;;2.00;;
21492;SDS011;10908;50.690;4.400;2022-07-19T08:04:02;10.13;;;2.28;;
21492;SDS011;10908;50.690;4.400;2022-07-19T08:06:29;7.32;;;1.90;;
21492;SDS011;10908;50.690;4.400;2022-07-19T08:08:54;7.95;;;2.00;;
21492;SDS011;10908;50.690;4.400;2022-07-19T08:11:20;8.07;;;2.13;;
21492;SDS011;10908;50.690;4.400;2022-07-19T08:13:46;10.27;;;2.00;;
21492;SDS011;10908;50.690;4.400;2022-07-19T08:16:12;8.80;;;1.92;;
21492;SDS011;10908;50.690;4.400;2022-07-19T08:18:38;9.90;;;2.20;;
21492;SDS011;10908;50.690;4.400;2022-07-19T08:21:03;8.40;;;2.17;;
21492;SDS011;10908;50.690;4.400;2022-07-19T08:23:29;9.02;;;2.10;;
21492;SDS011;10908;50.690;4.400;2022-07-19T08:25:55;9.77;;;2.50;;
21492;SDS011;10908;50.690;4.400;2022-07-19T08:28:20;8.50;;;2.25;;
21492;SDS011;10908;50.690;4.400;2022-07-19T08:30:46;9.05;;;2.17;;
21492;SDS011;10908;50.690;4.400;2022-07-19T08:33:12;7.55;;;2.45;;
21492;SDS011;10908;50.690;4.400;2022-07-19T08:35:38;6.95;;;2.15;;
21492;SDS011;10908;50.690;4.400;2022-07-19T08:38:03;7.18;;;1.90;;
21492;SDS011;10908;50.690;4.400;2022-07-19T08:40:33;12.35;;;2.00;;
21492;SDS011;10908;50.690;4.400;2022-07-19T08:42:59;13.68;;;2.10;;
21492;SDS011;10908;50.690;4.400;2022-07-19T08:45:30;10.77;;;2.60;;
21492;SDS011;10908;50.690;4.400;2022-07-19T08:47:57;7.85;;;2.22;;
21492;SDS011;10908;50.690;4.400;2022-07-19T08:50:23;14.48;;;2.80;;
21492;SDS011;10908;50.690;4.400;2022-07-19T08:52:51;11.93;;;2.20;;
21492;SDS011;10908;50.690;4.400;2022-07-19T08:55:17;6.90;;;2.20;;
21492;SDS011;10908;50.690;4.400;2022-07-19T08:57:43;6.95;;;2.22;;
21492;SDS011;10908;50.690;4.400;2022-07-19T09:00:28;9.15;;;2.22;;
21492;SDS011;10908;50.690;4.400;2022-07-19T09:02:59;11.82;;;2.42;;
21492;SDS011;10908;50.690;4.400;2022-07-19T09:05:27;11.98;;;2.30;;
21492;SDS011;10908;50.690;4.400;2022-07-19T09:08:01;9.02;;;2.47;;
21492;SDS011;10908;50.690;4.400;2022-07-19T09:10:44;7.75;;;2.38;;
21492;SDS011;10908;50.690;4.400;2022-07-19T09:13:30;6.75;;;2.10;;
21492;SDS011;10908;50.690;4.400;2022-07-19T09:15:56;8.15;;;2.10;;
21492;SDS011;10908;50.690;4.400;2022-07-19T09:18:25;7.25;;;2.67;;
21492;SDS011;10908;50.690;4.400;2022-07-19T09:20:57;12.30;;;3.10;;
21492;SDS011;10908;50.690;4.400;2022-07-19T09:23:24;8.27;;;2.25;;
21492;SDS011;10908;50.690;4.400;2022-07-19T09:25:52;7.05;;;2.40;;
21492;SDS011;10908;50.690;4.400;2022-07-19T09:28:37;8.50;;;2.20;;
21492;SDS011;10908;50.690;4.400;2022-07-19T09:31:03;6.45;;;2.20;;
21492;SDS011;10908;50.690;4.400;2022-07-19T09:33:30;7.10;;;2.55;;
21492;SDS011;10908;50.690;4.400;2022-07-19T09:35:58;8.30;;;2.20;;
21492;SDS011;10908;50.690;4.400;2022-07-19T09:38:33;10.50;;;2.08;;
21492;SDS011;10908;50.690;4.400;2022-07-19T09:41:13;7.00;;;2.40;;
21492;SDS011;10908;50.690;4.400;2022-07-19T09:43:54;7.10;;;2.30;;
21492;SDS011;10908;50.690;4.400;2022-07-19T09:49:07;9.05;;;2.40;;
21492;SDS011;10908;50.690;4.400;2022-07-19T09:51:48;5.90;;;2.00;;
21492;SDS011;10908;50.690;4.400;2022-07-19T09:54:17;9.55;;;1.98;;
21492;SDS011;10908;50.690;4.400;2022-07-19T09:56:46;7.82;;;2.10;;
21492;SDS011;10908;50.690;4.400;2022-07-19T09:59:15;11.80;;;2.33;;
21492;SDS011;10908;50.690;4.400;2022-07-19T10:01:41;8.23;;;2.72;;
21492;SDS011;10908;50.690;4.400;2022-07-19T10:04:08;7.15;;;2.20;;
21492;SDS011;10908;50.690;4.400;2022-07-19T10:06:36;9.25;;;2.28;;
21492;SDS011;10908;50.690;4.400;2022-07-19T10:09:04;7.38;;;2.15;;
21492;SDS011;10908;50.690;4.400;2022-07-19T10:11:31;11.63;;;2.28;;
21492;SDS011;10908;50.690;4.400;2022-07-19T10:13:59;8.15;;;2.00;;
21492;SDS011;10908;50.690;4.400;2022-07-19T10:22:06;6.80;;;2.33;;
21492;SDS011;10908;50.690;4.400;2022-07-19T10:24:46;7.43;;;2.17;;
21492;SDS011;10908;50.690;4.400;2022-07-19T10:27:39;6.25;;;2.08;;
21492;SDS011;10908;50.690;4.400;2022-07-19T10:32:37;6.43;;;2.05;;
21492;SDS011;10908;50.690;4.400;2022-07-19T10:37:54;7.97;;;2.53;;
21492;SDS011;10908;50.690;4.400;2022-07-19T10:40:34;6.68;;;2.10;;
21492;SDS011;10908;50.690;4.400;2022-07-19T10:43:03;7.38;;;2.10;;
21492;SDS011;10908;50.690;4.400;2022-07-19T10:45:30;9.75;;;2.20;;
21492;SDS011;10908;50.690;4.400;2022-07-19T10:50:41;10.02;;;2.50;;
21492;SDS011;10908;50.690;4.400;2022-07-19T10:53:06;5.35;;;1.92;;
21492;SDS011;10908;50.690;4.400;2022-07-19T10:55:32;9.50;;;2.22;;
21492;SDS011;10908;50.690;4.400;2022-07-19T11:00:27;8.07;;;2.40;;
21492;SDS011;10908;50.690;4.400;2022-07-19T11:06:03;6.82;;;2.05;;
21492;SDS011;10908;50.690;4.400;2022-07-19T11:08:32;9.45;;;2.53;;
21492;SDS011;10908;50.690;4.400;2022-07-19T11:11:06;11.73;;;2.17;;
21492;SDS011;10908;50.690;4.400;2022-07-19T11:13:34;8.70;;;2.20;;
21492;SDS011;10908;50.690;4.400;2022-07-19T11:16:01;8.88;;;2.03;;
21492;SDS011;10908;50.690;4.400;2022-07-19T11:18:31;7.35;;;2.40;;
21492;SDS011;10908;50.690;4.400;2022-07-19T11:20:58;6.65;;;2.30;;
21492;SDS011;10908;50.690;4.400;2022-07-19T11:23:29;6.95;;;2.40;;
21492;SDS011;10908;50.690;4.400;2022-07-19T11:28:30;8.55;;;2.28;;
21492;SDS011;10908;50.690;4.400;2022-07-19T11:30:56;8.23;;;2.55;;
21492;SDS011;10908;50.690;4.400;2022-07-19T11:33:22;7.95;;;2.35;;
21492;SDS011;10908;50.690;4.400;2022-07-19T11:35:52;9.90;;;2.58;;
21492;SDS011;10908;50.690;4.400;2022-07-19T11:38:21;6.20;;;2.50;;
21492;SDS011;10908;50.690;4.400;2022-07-19T11:40:47;8.43;;;2.83;;
21492;SDS011;10908;50.690;4.400;2022-07-19T11:43:12;9.25;;;2.50;;
21492;SDS011;10908;50.690;4.400;2022-07-19T11:45:42;5.55;;;2.45;;
21492;SDS011;10908;50.690;4.400;2022-07-19T11:48:22;6.90;;;2.40;;
21492;SDS011;10908;50.690;4.400;2022-07-19T11:51:11;8.40;;;2.40;;
21492;SDS011;10908;50.690;4.400;2022-07-19T11:53:38;8.90;;;2.38;;
21492;SDS011;10908;50.690;4.400;2022-07-19T11:56:05;11.18;;;2.75;;
21492;SDS011;10908;50.690;4.400;2022-07-19T11:58:40;11.35;;;2.70;;
21492;SDS011;10908;50.690;4.400;2022-07-19T12:01:08;8.27;;;2.30;;
21492;SDS011;10908;50.690;4.400;2022-07-19T12:03:34;8.82;;;2.30;;
21492;SDS011;10908;50.690;4.400;2022-07-19T12:08:52;8.05;;;2.33;;
21492;SDS011;10908;50.690;4.400;2022-07-19T12:13:46;5.72;;;2.47;;
21492;SDS011;10908;50.690;4.400;2022-07-19T12:16:12;10.25;;;2.78;;
21492;SDS011;10908;50.690;4.400;2022-07-19T12:21:14;8.63;;;3.08;;
21492;SDS011;10908;50.690;4.400;2022-07-19T12:23:39;7.38;;;2.90;;
21492;SDS011;10908;50.690;4.400;2022-07-19T12:26:05;4.43;;;2.30;;
21492;SDS011;10908;50.690;4.400;2022-07-19T12:28:32;9.23;;;2.85;;
21492;SDS011;10908;50.690;4.400;2022-07-19T12:31:04;6.53;;;2.53;;
21492;SDS011;10908;50.690;4.400;2022-07-19T12:33:30;6.47;;;2.83;;
21492;SDS011;10908;50.690;4.400;2022-07-19T12:35:57;8.63;;;2.90;;
21492;SDS011;10908;50.690;4.400;2022-07-19T12:38:31;8.15;;;2.42;;
21492;SDS011;10908;50.690;4.400;2022-07-19T12:41:04;7.40;;;2.40;;
21492;SDS011;10908;50.690;4.400;2022-07-19T12:43:31;9.43;;;2.90;;
21492;SDS011;10908;50.690;4.400;2022-07-19T12:45:58;7.20;;;2.90;;
21492;SDS011;10908;50.690;4.400;2022-07-19T12:48:26;7.85;;;2.60;;
21492;SDS011;10908;50.690;4.400;2022-07-19T12:50:53;8.68;;;2.33;;
21492;SDS011;10908;50.690;4.400;2022-07-19T12:53:19;8.80;;;2.47;;
21492;SDS011;10908;50.690;4.400;2022-07-19T12:55:45;9.65;;;2.30;;
21492;SDS011;10908;50.690;4.400;2022-07-19T12:58:14;7.20;;;2.15;;
21492;SDS011;10908;50.690;4.400;2022-07-19T13:01:00;7.20;;;2.38;;
21492;SDS011;10908;50.690;4.400;2022-07-19T13:03:26;7.93;;;2.30;;
21492;SDS011;10908;50.690;4.400;2022-07-19T13:05:51;7.43;;;2.50;;
21492;SDS011;10908;50.690;4.400;2022-07-19T13:08:17;8.25;;;2.35;;
21492;SDS011;10908;50.690;4.400;2022-07-19T13:10:42;4.88;;;2.05;;
21492;SDS011;10908;50.690;4.400;2022-07-19T13:13:09;9.02;;;2.10;;
21492;SDS011;10908;50.690;4.400;2022-07-19T13:15:35;6.18;;;2.33;;
21492;SDS011;10908;50.690;4.400;2022-07-19T13:18:00;8.70;;;1.95;;
21492;SDS011;10908;50.690;4.400;2022-07-19T13:20:27;5.50;;;1.90;;
21492;SDS011;10908;50.690;4.400;2022-07-19T13:22:53;10.32;;;2.20;;
21492;SDS011;10908;50.690;4.400;2022-07-19T13:25:19;6.38;;;2.10;;
21492;SDS011;10908;50.690;4.400;2022-07-19T13:27:44;6.18;;;2.13;;
21492;SDS011;10908;50.690;4.400;2022-07-19T13:30:10;9.18;;;1.90;;
21492;SDS011;10908;50.690;4.400;2022-07-19T13:32:36;5.38;;;2.00;;
21492;SDS011;10908;50.690;4.400;2022-07-19T13:35:02;8.48;;;1.95;;
21492;SDS011;10908;50.690;4.400;2022-07-19T13:37:28;5.90;;;1.80;;
21492;SDS011;10908;50.690;4.400;2022-07-19T13:39:53;4.05;;;1.80;;
21492;SDS011;10908;50.690;4.400;2022-07-19T13:42:19;6.18;;;2.00;;
21492;SDS011;10908;50.690;4.400;2022-07-19T13:44:45;6.15;;;1.58;;
21492;SDS011;10908;50.690;4.400;2022-07-19T13:47:10;7.68;;;1.60;;
21492;SDS011;10908;50.690;4.400;2022-07-19T13:49:37;7.00;;;1.55;;
21492;SDS011;10908;50.690;4.400;2022-07-19T13:52:02;7.35;;;1.65;;
21492;SDS011;10908;50.690;4.400;2022-07-19T13:54:28;10.27;;;1.90;;
21492;SDS011;10908;50.690;4.400;2022-07-19T13:56:54;5.22;;;1.75;;
21492;SDS011;10908;50.690;4.400;2022-07-19T13:59:19;5.45;;;1.60;;
21492;SDS011;10908;50.690;4.400;2022-07-19T14:01:45;4.18;;;1.60;;
21492;SDS011;10908;50.690;4.400;2022-07-19T14:04:11;7.22;;;1.70;;
21492;SDS011;10908;50.690;4.400;2022-07-19T14:06:37;8.48;;;1.67;;
21492;SDS011;10908;50.690;4.400;2022-07-19T14:09:03;5.25;;;1.80;;
21492;SDS011;10908;50.690;4.400;2022-07-19T14:11:28;5.30;;;1.73;;
21492;SDS011;10908;50.690;4.400;2022-07-19T14:13:54;6.35;;;1.40;;
21492;SDS011;10908;50.690;4.400;2022-07-19T14:16:20;6.13;;;1.55;;
21492;SDS011;10908;50.690;4.400;2022-07-19T14:18:45;4.40;;;1.50;;
21492;SDS011;10908;50.690;4.400;2022-07-19T14:21:11;6.28;;;1.42;;
21492;SDS011;10908;50.690;4.400;2022-07-19T14:23:37;8.35;;;1.60;;
21492;SDS011;10908;50.690;4.400;2022-07-19T14:26:02;6.15;;;1.33;;
21492;SDS011;10908;50.690;4.400;2022-07-19T14:28:28;3.60;;;1.40;;
21492;SDS011;10908;50.690;4.400;2022-07-19T14:30:54;5.43;;;1.60;;
21492;SDS011;10908;50.690;4.400;2022-07-19T14:33:19;5.15;;;1.20;;
21492;SDS011;10908;50.690;4.400;2022-07-19T14:35:45;7.47;;;1.50;;
21492;SDS011;10908;50.690;4.400;2022-07-19T14:38:11;6.10;;;1.65;;
21492;SDS011;10908;50.690;4.400;2022-07-19T14:40:37;10.02;;;1.73;;
21492;SDS011;10908;50.690;4.400;2022-07-19T14:43:02;6.78;;;1.88;;
21492;SDS011;10908;50.690;4.400;2022-07-19T14:45:28;4.63;;;1.70;;
21492;SDS011;10908;50.690;4.400;2022-07-19T14:47:54;8.52;;;1.63;;
21492;SDS011;10908;50.690;4.400;2022-07-19T14:50:20;4.65;;;1.40;;
21492;SDS011;10908;50.690;4.400;2022-07-19T14:52:46;7.43;;;2.08;;
21492;SDS011;10908;50.690;4.400;2022-07-19T14:55:11;9.73;;;1.75;;
21492;SDS011;10908;50.690;4.400;2022-07-19T14:57:37;5.55;;;1.77;;
21492;SDS011;10908;50.690;4.400;2022-07-19T15:00:04;6.30;;;1.83;;
21492;SDS011;10908;50.690;4.400;2022-07-19T15:02:31;5.30;;;1.80;;
21492;SDS011;10908;50.690;4.400;2022-07-19T15:04:57;7.05;;;1.65;;
21492;SDS011;10908;50.690;4.400;2022-07-19T15:07:24;5.20;;;1.67;;
21492;SDS011;10908;50.690;4.400;2022-07-19T15:09:50;6.63;;;1.80;;
21492;SDS011;10908;50.690;4.400;2022-07-19T15:12:17;9.07;;;1.70;;
21492;SDS011;10908;50.690;4.400;2022-07-19T15:14:43;5.40;;;1.90;;
21492;SDS011;10908;50.690;4.400;2022-07-19T15:17:08;8.15;;;1.92;;